Gaschem Phoenix — ELUO6 — position and weather

sailwx.info

Track history (hours):
 
Tides and Currents Weather Stations Pressure Air Temp Water Temp Dewpoint Dewpoint Depression Visibility Wind Speed Wind Dir Waves Ship Positions

Gaschem Phoenix

Last reported at 2015-Apr-24 08:33 UTC. Time now 2015-Apr-26 11:40 UTC.
Position N 34°30' E 139°07'.

Length 100 m; draft 6 m.

Type: Ship. MMSI: 636090235.

Date/timePositionNaut miles runAvg speedWind from/ knotsBaromVisibWave heightAir tempDewpointWater temp
2015-Apr-24 08:33N 34°30' E 139°07'2311.4
2015-Apr-24 06:31N 34°41' E 139°31'1311.6
2015-Apr-24 05:24N 34°52' E 139°39'1012.0
2015-Apr-24 04:33N 35°02' E 139°43'1212.1
2015-Apr-24 03:33N 35°13' E 139°46'1111.4
2015-Apr-24 02:34N 35°24' E 139°43'5 5.0
2015-Apr-24 01:32N 35°29' E 139°46'0 0.0
2015-Apr-24 00:31N 35°29' E 139°46'0 0.1
2015-Apr-23 23:31N 35°29' E 139°46'0 0.1
2015-Apr-23 22:31N 35°29' E 139°46'3 2.6
2015-Apr-23 21:33N 35°31' E 139°46'0 0.0
2015-Apr-23 01:25N 35°31' E 139°46'5 5.5
2015-Apr-23 00:33N 35°27' E 139°43'1 1.1
2015-Apr-22 23:33N 35°28' E 139°44'0 0.1
2015-Apr-22 22:32N 35°28' E 139°44'0 0.0
2015-Apr-22 21:32N 35°28' E 139°44'0 0.0
2015-Apr-22 20:31N 35°28' E 139°44'5 4.8
2015-Apr-22 19:33N 35°24' E 139°46'1110.9
2015-Apr-22 18:33N 35°13' E 139°47'1212.1
2015-Apr-22 17:33N 35°01' E 139°43'1110.6
2015-Apr-22 16:32N 34°52' E 139°37'7 7.6
2015-Apr-22 15:33N 34°45' E 139°34'10 9.4
2015-Apr-22 14:27N 34°37' E 139°25'  
2015-Apr-19 05:27N 30°56' E 122°42'1713.0
2015-Apr-19 04:07N 31°01' E 122°22'712.6
2015-Apr-19 03:33N 31°03' E 122°14'1010.0
2015-Apr-19 02:33N 31°05' E 122°03'10 9.9
2015-Apr-19 01:33N 31°09' E 121°52'1313.2
2015-Apr-19 00:33N 31°19' E 121°42'1111.5
2015-Apr-18 23:33N 31°25' E 121°31'10 9.8
2015-Apr-18 22:33N 31°32' E 121°22'3 2.5
2015-Apr-18 21:31N 31°34' E 121°20'0 0.0
2015-Apr-18 20:31N 31°34' E 121°20'0 0.1
2015-Apr-18 19:33N 31°34' E 121°20'0 0.1
2015-Apr-18 18:33N 31°34' E 121°20'0 0.0
2015-Apr-18 17:33N 31°34' E 121°20'0 0.0
2015-Apr-18 16:32N 31°34' E 121°20'0 0.0
2015-Apr-18 15:32N 31°34' E 121°20'4 4.6
2015-Apr-18 14:33N 31°37' E 121°16'1414.2
2015-Apr-18 13:33N 31°46' E 121°03'1312.6
2015-Apr-18 12:33N 31°55' E 120°53'1212.4
2015-Apr-18 11:33N 31°60' E 120°39'1212.0
2015-Apr-18 10:33N 32°03' E 120°26'1313.3
2015-Apr-18 09:34N 31°56' E 120°13'10 8.0
2015-Apr-18 08:17N 31°58' E 120°01'0 0.0
2015-Apr-17 11:27N 31°58' E 120°01'5 5.7
2015-Apr-17 10:32N 31°57' E 120°07'1010.0
2015-Apr-17 09:32N 31°58' E 120°19'1111.1
2015-Apr-17 08:32N 32°04' E 120°29'1111.0
2015-Apr-17 07:33N 32°00' E 120°41'1110.7
2015-Apr-17 06:34N 31°56' E 120°52'1211.6
2015-Apr-17 05:30N 31°46' E 121°01'1313.7
2015-Apr-17 04:33N 31°39' E 121°14'1313.2
2015-Apr-17 03:33N 31°30' E 121°25'9 9.5
2015-Apr-17 02:33N 31°24' E 121°34'1010.1
2015-Apr-17 01:33N 31°18' E 121°43'1211.9
2015-Apr-17 00:33N 31°09' E 121°53'1313.2
2015-Apr-16 23:33N 31°04' E 122°07'1110.5
2015-Apr-16 22:33N 31°02' E 122°19'1211.8
2015-Apr-16 21:33N 30°60' E 122°32'4 3.9
2015-Apr-16 20:28N 31°00' E 122°37'0 0.1
2015-Apr-16 19:28N 31°00' E 122°37'0 0.0
2015-Apr-16 18:30N 31°00' E 122°37'0 0.0
2015-Apr-16 17:33N 31°01' E 122°37'0 0.0
2015-Apr-16 16:33N 31°01' E 122°37'0 0.0
2015-Apr-16 15:20N 31°01' E 122°37'0 0.1
2015-Apr-16 14:29N 31°01' E 122°37'0 0.1
2015-Apr-16 13:31N 31°01' E 122°37'0 0.0
2015-Apr-16 12:31N 31°01' E 122°37'0 0.0
2015-Apr-16 11:18N 31°01' E 122°37'0 0.0
2015-Apr-16 09:24N 31°00' E 122°37'0 0.0
2015-Apr-16 08:08N 31°00' E 122°37'0 0.1
2015-Apr-16 07:23N 31°00' E 122°37'11 3.6
2015-Apr-16 04:13N 30°56' E 122°50'  
Track history (hours):
 
Tides and Currents Weather Stations Pressure Air Temp Water Temp Dewpoint Dewpoint Depression Visibility Wind Speed Wind Dir Waves Ship Positions

Gaschem Phoenix

Last reported at 2015-Apr-24 08:33 UTC. Time now 2015-Apr-26 11:40 UTC.
Position N 34°30' E 139°07'.

Length 100 m; draft 6 m.

Type: Ship. MMSI: 636090235.

Date/timePositionNaut miles runAvg speedWind from/ knotsBaromVisibWave heightAir tempDewpointWater temp
2015-Apr-24 08:33N 34°30' E 139°07'2311.4
2015-Apr-24 06:31N 34°41' E 139°31'1311.6
2015-Apr-24 05:24N 34°52' E 139°39'1012.0
2015-Apr-24 04:33N 35°02' E 139°43'1212.1
2015-Apr-24 03:33N 35°13' E 139°46'1111.4
2015-Apr-24 02:34N 35°24' E 139°43'5 5.0
2015-Apr-24 01:32N 35°29' E 139°46'0 0.0
2015-Apr-24 00:31N 35°29' E 139°46'0 0.1
2015-Apr-23 23:31N 35°29' E 139°46'0 0.1
2015-Apr-23 22:31N 35°29' E 139°46'3 2.6
2015-Apr-23 21:33N 35°31' E 139°46'0 0.0
2015-Apr-23 01:25N 35°31' E 139°46'5 5.5
2015-Apr-23 00:33N 35°27' E 139°43'1 1.1
2015-Apr-22 23:33N 35°28' E 139°44'0 0.1
2015-Apr-22 22:32N 35°28' E 139°44'0 0.0
2015-Apr-22 21:32N 35°28' E 139°44'0 0.0
2015-Apr-22 20:31N 35°28' E 139°44'5 4.8
2015-Apr-22 19:33N 35°24' E 139°46'1110.9
2015-Apr-22 18:33N 35°13' E 139°47'1212.1
2015-Apr-22 17:33N 35°01' E 139°43'1110.6
2015-Apr-22 16:32N 34°52' E 139°37'7 7.6
2015-Apr-22 15:33N 34°45' E 139°34'10 9.4
2015-Apr-22 14:27N 34°37' E 139°25'  
2015-Apr-19 05:27N 30°56' E 122°42'1713.0
2015-Apr-19 04:07N 31°01' E 122°22'712.6
2015-Apr-19 03:33N 31°03' E 122°14'1010.0
2015-Apr-19 02:33N 31°05' E 122°03'10 9.9
2015-Apr-19 01:33N 31°09' E 121°52'1313.2
2015-Apr-19 00:33N 31°19' E 121°42'1111.5
2015-Apr-18 23:33N 31°25' E 121°31'10 9.8
2015-Apr-18 22:33N 31°32' E 121°22'3 2.5
2015-Apr-18 21:31N 31°34' E 121°20'0 0.0
2015-Apr-18 20:31N 31°34' E 121°20'0 0.1
2015-Apr-18 19:33N 31°34' E 121°20'0 0.1
2015-Apr-18 18:33N 31°34' E 121°20'0 0.0
2015-Apr-18 17:33N 31°34' E 121°20'0 0.0
2015-Apr-18 16:32N 31°34' E 121°20'0 0.0
2015-Apr-18 15:32N 31°34' E 121°20'4 4.6
2015-Apr-18 14:33N 31°37' E 121°16'1414.2
2015-Apr-18 13:33N 31°46' E 121°03'1312.6
2015-Apr-18 12:33N 31°55' E 120°53'1212.4
2015-Apr-18 11:33N 31°60' E 120°39'1212.0
2015-Apr-18 10:33N 32°03' E 120°26'1313.3
2015-Apr-18 09:34N 31°56' E 120°13'10 8.0
2015-Apr-18 08:17N 31°58' E 120°01'0 0.0
2015-Apr-17 11:27N 31°58' E 120°01'5 5.7
2015-Apr-17 10:32N 31°57' E 120°07'1010.0
2015-Apr-17 09:32N 31°58' E 120°19'1111.1
2015-Apr-17 08:32N 32°04' E 120°29'1111.0
2015-Apr-17 07:33N 32°00' E 120°41'1110.7
2015-Apr-17 06:34N 31°56' E 120°52'1211.6
2015-Apr-17 05:30N 31°46' E 121°01'1313.7
2015-Apr-17 04:33N 31°39' E 121°14'1313.2
2015-Apr-17 03:33N 31°30' E 121°25'9 9.5
2015-Apr-17 02:33N 31°24' E 121°34'1010.1
2015-Apr-17 01:33N 31°18' E 121°43'1211.9
2015-Apr-17 00:33N 31°09' E 121°53'1313.2
2015-Apr-16 23:33N 31°04' E 122°07'1110.5
2015-Apr-16 22:33N 31°02' E 122°19'1211.8
2015-Apr-16 21:33N 30°60' E 122°32'4 3.9
2015-Apr-16 20:28N 31°00' E 122°37'0 0.1
2015-Apr-16 19:28N 31°00' E 122°37'0 0.0
2015-Apr-16 18:30N 31°00' E 122°37'0 0.0
2015-Apr-16 17:33N 31°01' E 122°37'0 0.0
2015-Apr-16 16:33N 31°01' E 122°37'0 0.0
2015-Apr-16 15:20N 31°01' E 122°37'0 0.1
2015-Apr-16 14:29N 31°01' E 122°37'0 0.1
2015-Apr-16 13:31N 31°01' E 122°37'0 0.0
2015-Apr-16 12:31N 31°01' E 122°37'0 0.0
2015-Apr-16 11:18N 31°01' E 122°37'0 0.0
2015-Apr-16 09:24N 31°00' E 122°37'0 0.0
2015-Apr-16 08:08N 31°00' E 122°37'0 0.1
2015-Apr-16 07:23N 31°00' E 122°37'11 3.6
2015-Apr-16 04:13N 30°56' E 122°50'  

Dump ship's entire track history